Mason, South Dakota
Current Conditions -  °F | °C
As of 3:15 PM on Monday 20 Oct 2014 (Local Time) from KSPF Reporting Station
Clear Clear  
Wind Chill: 73°   Ceiling: Unl
Heat Index: 73°   Visibility: 10mi
Dew Point: 46°   Wind: 9mph
Humidity: 38%   Direction: 60°ENE
Pressure: 29.95"   Gusts: NA
Location:  44.9293°N, 103.753°W
Report Text: KSPF 202115Z AUTO 06008KT 10SM CLR 23/08 A2995 RMK AO2
Loading
Personal Weather Stations






























Interactive Weather Map
Tropical Storm Tracking
New forecast layout! Learn more

10-Day Weather Forecast

Advertisements
Track Severe Weather on mobile